Time;durP1;ratioP1;P1;durP2;ratioP2;P2;SDS_P1;SDS_P2;PMS_P1;PMS_P2;Temp;Humidity;BMP_temperature;BMP_pressure;BME280_temperature;BME280_humidity;BME280_pressure;Samples;Min_cycle;Max_cycle;Signal;HPM_P1;HPM_P2
2024/01/03 00:02:22;;;;;;;1.00;0.77;;;;;;;7.25;100.00;95339.59;5000477;28;20057;-72
2024/01/03 00:04:47;;;;;;;1.67;0.70;;;;;;;7.39;100.00;95320.63;5011262;28;20052;-69
2024/01/03 00:07:14;;;;;;;0.70;0.60;;;;;;;7.43;100.00;95321.44;5006364;28;20132;-71
2024/01/03 00:09:39;;;;;;;0.68;0.57;;;;;;;7.37;100.00;95324.91;5012268;28;20037;-70
2024/01/03 00:12:07;;;;;;;0.82;0.75;;;;;;;7.31;100.00;95334.56;5017298;28;20329;-70
2024/01/03 00:14:34;;;;;;;0.88;0.70;;;;;;;7.21;100.00;95336.84;5032432;28;20052;-72
2024/01/03 00:17:08;;;;;;;0.73;0.60;;;;;;;7.18;100.00;95325.94;5025058;28;20420;-70
2024/01/03 00:19:39;;;;;;;1.42;0.63;;;;;;;7.12;100.00;95332.91;5020318;28;20042;-73
2024/01/03 00:22:09;;;;;;;0.88;0.63;;;;;;;7.04;100.00;95324.69;5031919;28;20069;-71
2024/01/03 00:24:44;;;;;;;0.82;0.80;;;;;;;6.99;100.00;95325.03;5038687;28;20396;-71
2024/01/03 00:27:10;;;;;;;0.95;0.60;;;;;;;7.03;100.00;95323.09;5027511;28;20134;-71
2024/01/03 00:29:51;;;;;;;0.85;0.60;;;;;;;7.14;100.00;95334.06;5022641;28;20045;-70
2024/01/03 00:32:18;;;;;;;1.88;1.00;;;;;;;7.21;100.00;95325.19;5008468;28;20825;-70
2024/01/03 00:34:44;;;;;;;1.30;0.70;;;;;;;7.30;100.00;95314.75;5017408;28;20046;-70
2024/01/03 00:37:24;;;;;;;2.47;0.93;;;;;;;7.40;100.00;95297.69;5003074;28;20044;-71
2024/01/03 00:39:50;;;;;;;0.85;0.70;;;;;;;7.51;100.00;95296.94;5019775;28;20041;-69
2024/01/03 00:42:16;;;;;;;1.38;0.70;;;;;;;7.47;100.00;95302.38;5006965;28;20502;-69
2024/01/03 00:44:41;;;;;;;2.10;0.80;;;;;;;7.49;100.00;95308.25;5019417;28;20033;-71
2024/01/03 00:47:07;;;;;;;7.38;0.70;;;;;;;7.57;100.00;95318.03;5015646;28;20508;-70
2024/01/03 00:49:34;;;;;;;1.25;0.70;;;;;;;7.60;100.00;95311.81;5023422;28;20064;-70
2024/01/03 00:52:01;;;;;;;0.60;0.60;;;;;;;7.61;100.00;95309.88;5014471;28;20092;-70
2024/01/03 00:54:28;;;;;;;2.60;0.60;;;;;;;7.61;100.00;95315.31;5013951;28;20042;-69
2024/01/03 00:56:54;;;;;;;4.03;0.85;;;;;;;7.52;100.00;95318.38;5020764;28;20400;-70
2024/01/03 00:59:20;;;;;;;2.72;1.67;;;;;;;7.44;100.00;95322.22;5006820;28;20056;-71
2024/01/03 01:01:46;;;;;;;0.90;0.80;;;;;;;7.52;100.00;95321.09;5003534;28;20037;-70
2024/01/03 01:04:13;;;;;;;1.05;0.68;;;;;;;7.47;100.00;95314.09;5005564;28;20065;-69
2024/01/03 01:06:41;;;;;;;3.72;0.70;;;;;;;7.49;100.00;95318.34;5016827;28;20075;-70
2024/01/03 01:09:08;;;;;;;0.80;0.73;;;;;;;7.47;100.00;95335.06;5011322;28;20076;-71
2024/01/03 01:11:34;;;;;;;1.40;0.73;;;;;;;7.50;100.00;95330.81;5012181;28;20034;-70
2024/01/03 01:13:59;;;;;;;0.90;0.80;;;;;;;7.50;100.00;95334.31;5040292;28;20036;-71
2024/01/03 01:16:25;;;;;;;1.08;0.65;;;;;;;7.40;100.00;95341.28;5018373;28;20667;-70
2024/01/03 01:18:50;;;;;;;1.30;0.70;;;;;;;7.43;100.00;95339.72;5028544;28;20524;-68
2024/01/03 01:21:16;;;;;;;2.03;0.70;;;;;;;7.49;100.00;95348.31;5010150;28;20045;-69
2024/01/03 01:23:42;;;;;;;0.70;0.50;;;;;;;7.43;100.00;95348.66;5012757;28;20049;-70
2024/01/03 01:26:08;;;;;;;0.60;0.60;;;;;;;7.45;100.00;95343.66;5017177;28;20046;-70
2024/01/03 01:28:34;;;;;;;2.78;0.70;;;;;;;7.50;100.00;95358.84;5010363;28;20053;-70
2024/01/03 01:30:59;;;;;;;2.85;0.88;;;;;;;7.60;100.00;95347.25;5013543;28;20038;-70
2024/01/03 01:33:25;;;;;;;1.95;0.70;;;;;;;7.67;100.00;95335.59;5010638;28;20124;-69
2024/01/03 01:35:50;;;;;;;0.88;0.68;;;;;;;7.65;100.00;95356.97;5010842;28;20167;-69
2024/01/03 01:38:15;;;;;;;0.82;0.60;;;;;;;7.75;100.00;95344.59;5014776;28;20045;-69
2024/01/03 01:40:41;;;;;;;1.35;0.60;;;;;;;7.78;100.00;95360.19;5010897;28;20091;-69
2024/01/03 01:43:08;;;;;;;2.22;0.70;;;;;;;7.78;100.00;95357.47;5008729;28;20464;-70
2024/01/03 01:45:33;;;;;;;0.70;0.52;;;;;;;7.89;100.00;95357.53;5007950;28;20076;-69
2024/01/03 01:48:00;;;;;;;0.80;0.60;;;;;;;7.93;100.00;95345.47;5009237;28;20129;-71
2024/01/03 01:50:25;;;;;;;0.68;0.60;;;;;;;8.08;100.00;95338.13;5012176;28;20054;-71
2024/01/03 01:52:52;;;;;;;1.10;0.68;;;;;;;8.16;100.00;95331.53;5010787;28;20033;-71
2024/01/03 01:55:19;;;;;;;2.30;0.57;;;;;;;8.22;100.00;95360.00;5015189;28;20042;-69
2024/01/03 01:57:45;;;;;;;1.52;0.80;;;;;;;8.21;100.00;95352.19;5017604;28;20033;-71
2024/01/03 02:00:12;;;;;;;1.02;0.80;;;;;;;8.18;100.00;95355.72;5012473;28;20045;-69
2024/01/03 02:02:39;;;;;;;1.63;0.70;;;;;;;8.11;100.00;95369.31;5031033;28;20047;-70
2024/01/03 02:05:09;;;;;;;0.60;0.60;;;;;;;8.04;100.00;95376.28;5028707;28;20053;-70
2024/01/03 02:07:35;;;;;;;1.63;0.70;;;;;;;8.04;100.00;95367.31;5009271;28;20513;-68
2024/01/03 02:10:02;;;;;;;2.92;0.52;;;;;;;7.99;100.00;95359.50;5027581;28;20076;-69
2024/01/03 02:12:28;;;;;;;1.55;0.70;;;;;;;8.05;100.00;95377.06;5015622;28;20048;-70
2024/01/03 02:14:54;;;;;;;0.70;0.60;;;;;;;8.11;100.00;95375.53;5033690;28;20041;-71
2024/01/03 02:17:21;;;;;;;0.70;0.70;;;;;;;8.17;100.00;95378.69;4998887;28;20038;-70
2024/01/03 02:19:46;;;;;;;2.13;0.77;;;;;;;8.21;100.00;95390.38;5033105;28;20103;-70
2024/01/03 02:22:12;;;;;;;0.70;0.55;;;;;;;8.22;100.00;95378.31;5004512;28;20045;-69
2024/01/03 02:24:37;;;;;;;0.68;0.60;;;;;;;8.21;100.00;95368.56;5013297;28;20555;-69
2024/01/03 02:27:03;;;;;;;1.23;0.70;;;;;;;8.15;100.00;95373.59;5035206;28;20500;-70
2024/01/03 02:29:28;;;;;;;0.60;0.60;;;;;;;8.07;100.00;95374.75;5012564;28;20042;-70
2024/01/03 02:31:53;;;;;;;3.17;0.70;;;;;;;7.92;100.00;95373.88;5018547;28;20038;-69
2024/01/03 02:34:19;;;;;;;1.08;0.80;;;;;;;7.80;100.00;95366.03;5019839;28;20060;-69
2024/01/03 02:36:49;;;;;;;2.05;0.68;;;;;;;7.68;100.00;95360.91;5008600;28;20752;-69
2024/01/03 02:39:15;;;;;;;0.98;0.70;;;;;;;7.65;100.00;95363.22;5015372;28;20041;-69
2024/01/03 02:41:40;;;;;;;1.73;0.82;;;;;;;7.65;100.00;95354.25;5015554;28;20488;-70
2024/01/03 02:44:06;;;;;;;1.10;0.63;;;;;;;7.56;100.00;95345.63;5005048;28;20033;-70
2024/01/03 02:46:31;;;;;;;0.70;0.70;;;;;;;7.51;100.00;95329.66;5021535;28;20065;-69
2024/01/03 02:48:56;;;;;;;1.15;0.70;;;;;;;7.48;100.00;95320.31;5006884;28;20044;-69
2024/01/03 02:51:22;;;;;;;1.17;0.70;;;;;;;7.47;100.00;95327.69;5001208;28;20537;-68
2024/01/03 02:53:48;;;;;;;2.05;0.80;;;;;;;7.52;100.00;95325.78;5034485;28;20037;-69
2024/01/03 02:56:14;;;;;;;1.60;0.70;;;;;;;7.63;100.00;95335.59;5008755;28;20064;-70
2024/01/03 02:58:40;;;;;;;2.47;0.80;;;;;;;7.67;100.00;95330.16;5033555;28;20034;-71
2024/01/03 03:01:05;;;;;;;1.40;0.70;;;;;;;7.82;100.00;95359.03;5027317;28;20049;-70
2024/01/03 03:03:31;;;;;;;1.52;0.73;;;;;;;7.86;100.00;95356.31;5021861;28;20040;-70
2024/01/03 03:05:56;;;;;;;0.98;0.70;;;;;;;7.73;100.00;95360.56;5020704;28;20431;-69
2024/01/03 03:08:22;;;;;;;2.40;0.80;;;;;;;7.59;100.00;95372.91;5009925;28;20127;-70
2024/01/03 03:10:47;;;;;;;1.52;0.80;;;;;;;7.43;100.00;95378.63;5008753;28;20100;-70
2024/01/03 03:13:13;;;;;;;2.45;1.02;;;;;;;7.40;100.00;95386.78;5003254;28;20069;-70
2024/01/03 03:15:38;;;;;;;4.75;1.17;;;;;;;7.36;100.00;95364.97;5009664;28;20440;-70
2024/01/03 03:18:04;;;;;;;1.83;0.80;;;;;;;7.35;100.00;95376.25;5028858;28;20048;-72
2024/01/03 03:20:29;;;;;;;2.45;1.00;;;;;;;7.33;100.00;95357.56;5022049;28;20120;-70
2024/01/03 03:22:55;;;;;;;3.22;0.90;;;;;;;7.28;100.00;95360.63;5046466;28;20037;-69
2024/01/03 03:25:20;;;;;;;1.98;1.00;;;;;;;7.26;100.00;95347.41;5033653;28;20109;-69
2024/01/03 03:27:45;;;;;;;2.97;0.90;;;;;;;7.30;100.00;95350.16;5015298;28;20159;-69
2024/01/03 03:30:11;;;;;;;1.80;0.85;;;;;;;7.28;100.00;95345.06;5005591;28;20041;-69
2024/01/03 03:32:36;;;;;;;2.42;0.80;;;;;;;7.26;100.00;95358.28;5002094;28;20049;-69
2024/01/03 03:35:02;;;;;;;1.23;0.70;;;;;;;7.24;100.00;95348.94;5007727;28;20042;-69
2024/01/03 03:37:27;;;;;;;2.92;1.00;;;;;;;7.23;100.00;95341.91;5007094;28;20038;-69
2024/01/03 03:39:53;;;;;;;1.02;0.73;;;;;;;7.21;100.00;95360.59;5012655;28;20103;-69
2024/01/03 03:42:18;;;;;;;0.95;0.70;;;;;;;7.21;100.00;95361.34;5000880;28;20077;-69
2024/01/03 03:44:44;;;;;;;1.45;0.80;;;;;;;7.18;100.00;95348.50;5040743;28;20042;-71
2024/01/03 03:47:09;;;;;;;2.65;1.00;;;;;;;7.13;100.00;95354.31;4992044;28;20069;-72
2024/01/03 03:49:35;;;;;;;0.98;0.80;;;;;;;7.16;100.00;95345.38;5000029;28;20512;-74
2024/01/03 03:52:00;;;;;;;1.35;0.82;;;;;;;7.16;100.00;95352.75;5008536;28;20097;-70
2024/01/03 03:54:26;;;;;;;1.08;0.82;;;;;;;7.13;100.00;95357.03;5004700;28;20041;-70
2024/01/03 03:56:51;;;;;;;1.23;0.88;;;;;;;7.15;100.00;95353.91;5001393;28;20487;-70
2024/01/03 03:59:16;;;;;;;0.98;0.70;;;;;;;7.16;100.00;95361.69;5003334;28;20129;-71
2024/01/03 04:01:49;;;;;;;1.88;0.90;;;;;;;7.25;100.00;95366.84;5003428;28;20042;-71
2024/01/03 04:04:15;;;;;;;1.30;0.85;;;;;;;7.28;100.00;95353.25;5002363;28;20034;-71
2024/01/03 04:06:42;;;;;;;2.20;1.10;;;;;;;7.28;100.00;95342.34;5009430;28;20044;-71
2024/01/03 04:09:10;;;;;;;1.92;0.88;;;;;;;7.22;100.00;95360.22;5003646;28;20071;-71
2024/01/03 04:11:39;;;;;;;1.42;0.80;;;;;;;7.27;100.00;95365.31;5002115;28;20128;-72
2024/01/03 04:14:07;;;;;;;0.93;0.73;;;;;;;7.24;100.00;95362.56;5000570;28;20075;-70
2024/01/03 04:16:32;;;;;;;2.00;0.70;;;;;;;7.17;100.00;95357.84;5001196;28;20125;-69
2024/01/03 04:18:58;;;;;;;1.45;0.70;;;;;;;7.13;100.00;95351.59;4999232;28;20204;-72
2024/01/03 04:21:23;;;;;;;0.85;0.50;;;;;;;7.18;100.00;95347.72;4997802;28;20073;-70
2024/01/03 04:23:49;;;;;;;1.67;0.60;;;;;;;7.14;100.00;95344.19;5008718;28;20481;-72
2024/01/03 04:26:14;;;;;;;1.92;0.70;;;;;;;7.13;100.00;95337.16;4996449;28;20511;-71
2024/01/03 04:28:39;;;;;;;0.93;0.70;;;;;;;7.10;100.00;95337.94;5000877;28;20103;-73
2024/01/03 04:31:06;;;;;;;2.85;0.80;;;;;;;7.12;100.00;95341.84;5003803;28;20030;-71
2024/01/03 04:33:31;;;;;;;1.20;0.85;;;;;;;7.06;100.00;95346.09;5010053;28;20452;-72
2024/01/03 04:35:57;;;;;;;1.75;0.55;;;;;;;7.13;100.00;95346.13;5008666;28;20050;-73
2024/01/03 04:38:22;;;;;;;2.10;0.70;;;;;;;7.16;100.00;95353.53;4996975;28;20783;-71
2024/01/03 04:40:47;;;;;;;1.23;1.13;;;;;;;7.18;100.00;95348.50;5031143;28;20053;-71
2024/01/03 04:43:13;;;;;;;2.45;0.80;;;;;;;7.12;100.00;95354.69;5025468;28;20049;-70
2024/01/03 04:45:38;;;;;;;4.57;0.80;;;;;;;7.09;100.00;95356.19;5032207;28;20107;-70
2024/01/03 04:48:04;;;;;;;2.05;0.80;;;;;;;7.13;100.00;95373.38;5010212;28;20042;-73
2024/01/03 04:50:30;;;;;;;3.08;0.90;;;;;;;7.11;100.00;95374.88;5019398;28;20144;-71
2024/01/03 04:52:55;;;;;;;1.40;0.80;;;;;;;7.10;100.00;95379.56;5022266;28;20781;-73
2024/01/03 04:55:20;;;;;;;1.40;0.90;;;;;;;7.14;100.00;95379.59;5019906;28;20495;-73
2024/01/03 04:57:46;;;;;;;0.95;0.80;;;;;;;7.19;100.00;95384.69;5020644;28;20052;-72
2024/01/03 05:00:12;;;;;;;5.07;1.00;;;;;;;7.19;100.00;95380.03;5014189;28;20136;-71
2024/01/03 05:02:37;;;;;;;1.95;1.08;;;;;;;7.19;100.00;95371.84;5017237;28;20503;-72
2024/01/03 05:05:03;;;;;;;1.67;0.95;;;;;;;7.18;100.00;95372.22;5000418;28;20038;-71
2024/01/03 05:07:31;;;;;;;3.20;1.27;;;;;;;7.22;100.00;95375.75;5022942;28;20149;-73
2024/01/03 05:09:56;;;;;;;2.17;1.10;;;;;;;7.23;100.00;95374.59;5016024;28;20137;-72
2024/01/03 05:12:22;;;;;;;1.17;1.05;;;;;;;7.29;100.00;95378.53;5011570;28;20321;-72
2024/01/03 05:14:47;;;;;;;2.00;1.20;;;;;;;7.25;100.00;95383.19;5024720;28;20034;-73
2024/01/03 05:17:12;;;;;;;1.98;1.25;;;;;;;7.26;100.00;95379.31;5019553;28;20045;-72
2024/01/03 05:19:38;;;;;;;3.78;1.30;;;;;;;7.32;100.00;95393.34;5019470;28;20053;-73
2024/01/03 05:22:03;;;;;;;1.65;0.85;;;;;;;7.30;100.00;95401.91;5010386;28;20038;-69
2024/01/03 05:24:29;;;;;;;5.55;1.55;;;;;;;7.28;100.00;95391.38;5017869;28;20484;-71
2024/01/03 05:26:54;;;;;;;2.08;1.20;;;;;;;7.29;100.00;95397.59;5017835;28;20094;-70
2024/01/03 05:29:19;;;;;;;1.55;1.00;;;;;;;7.32;100.00;95409.69;5013270;28;20049;-73
2024/01/03 05:31:45;;;;;;;3.85;1.35;;;;;;;7.33;100.00;95397.63;5015730;28;20408;-72
2024/01/03 05:34:10;;;;;;;3.20;1.00;;;;;;;7.31;100.00;95394.50;5015600;28;20030;-71
2024/01/03 05:36:36;;;;;;;2.35;1.00;;;;;;;7.31;100.00;95397.22;5038078;28;20119;-71
2024/01/03 05:39:02;;;;;;;0.95;0.82;;;;;;;7.33;100.00;95406.59;5003612;28;20036;-74
2024/01/03 05:41:27;;;;;;;2.60;0.90;;;;;;;7.34;100.00;95415.53;5016825;28;20454;-71
2024/01/03 05:43:53;;;;;;;0.95;0.73;;;;;;;7.36;100.00;95424.13;5011124;28;20041;-71
2024/01/03 05:46:18;;;;;;;4.78;1.30;;;;;;;7.33;100.00;95419.41;5014598;28;20403;-70
2024/01/03 05:48:44;;;;;;;1.13;0.98;;;;;;;7.34;100.00;95396.47;5011733;28;20046;-70
2024/01/03 05:51:10;;;;;;;2.60;0.93;;;;;;;7.30;100.00;95412.78;5015021;28;20116;-71
2024/01/03 05:53:35;;;;;;;2.28;1.05;;;;;;;7.27;100.00;95429.88;5015416;28;20034;-72
2024/01/03 05:56:01;;;;;;;3.08;1.00;;;;;;;7.21;100.00;95426.72;5010252;28;20135;-72
2024/01/03 05:58:26;;;;;;;3.72;0.90;;;;;;;7.19;100.00;95420.88;5007890;28;20046;-71
2024/01/03 06:00:52;;;;;;;3.13;1.10;;;;;;;7.18;100.00;95413.06;4995807;28;20813;-71
2024/01/03 06:03:18;;;;;;;1.38;1.00;;;;;;;7.18;100.00;95424.72;5019545;28;20667;-71
2024/01/03 06:05:43;;;;;;;1.33;0.70;;;;;;;7.16;100.00;95437.94;5020935;28;20042;-71
2024/01/03 06:08:08;;;;;;;3.00;0.90;;;;;;;7.14;100.00;95434.81;5014977;28;20049;-72
2024/01/03 06:10:34;;;;;;;3.03;0.80;;;;;;;7.13;100.00;95425.09;5023208;28;20505;-72
2024/01/03 06:12:59;;;;;;;1.45;0.80;;;;;;;7.13;100.00;95432.47;5016568;28;20489;-71
2024/01/03 06:15:25;;;;;;;3.38;0.88;;;;;;;7.08;100.00;95444.50;5015142;28;20099;-71
2024/01/03 06:17:50;;;;;;;1.42;0.90;;;;;;;7.06;100.00;95452.25;5022863;28;20068;-71
2024/01/03 06:20:15;;;;;;;1.88;0.90;;;;;;;7.04;100.00;95444.47;5010299;28;20037;-71
2024/01/03 06:22:41;;;;;;;3.63;1.00;;;;;;;6.95;100.00;95449.44;5022050;28;20148;-72
2024/01/03 06:25:06;;;;;;;2.47;0.90;;;;;;;6.91;100.00;95453.25;5025752;28;20041;-71
2024/01/03 06:27:32;;;;;;;1.25;0.77;;;;;;;6.91;100.00;95454.03;5028806;28;20044;-71
2024/01/03 06:29:57;;;;;;;1.63;0.82;;;;;;;6.82;100.00;95457.06;5022176;28;20048;-72
2024/01/03 06:32:22;;;;;;;1.50;1.00;;;;;;;6.89;100.00;95459.84;5017657;28;20137;-72
2024/01/03 06:34:48;;;;;;;3.00;1.23;;;;;;;6.87;100.00;95466.84;5021978;28;20095;-71
2024/01/03 06:37:13;;;;;;;3.92;1.38;;;;;;;6.88;100.00;95460.25;5018623;28;20065;-70
2024/01/03 06:39:38;;;;;;;2.55;1.20;;;;;;;6.97;100.00;95462.66;5027911;28;20037;-71
2024/01/03 06:42:04;;;;;;;2.25;1.20;;;;;;;7.02;100.00;95460.41;5021118;28;20118;-73
2024/01/03 06:44:30;;;;;;;1.63;0.80;;;;;;;7.08;100.00;95461.59;5037549;28;20042;-71
2024/01/03 06:46:55;;;;;;;2.22;1.10;;;;;;;7.14;100.00;95455.81;5021919;28;20041;-71
2024/01/03 06:49:21;;;;;;;1.95;1.02;;;;;;;7.16;100.00;95462.44;5017711;28;20041;-71
2024/01/03 06:51:47;;;;;;;1.88;1.00;;;;;;;7.14;100.00;95462.06;5028661;28;20207;-71
2024/01/03 06:54:13;;;;;;;1.88;0.90;;;;;;;7.13;100.00;95463.22;5027803;28;20577;-72
2024/01/03 06:56:39;;;;;;;1.80;1.20;;;;;;;7.16;100.00;95462.44;5036983;28;20109;-71
2024/01/03 06:59:04;;;;;;;3.97;1.30;;;;;;;7.15;100.00;95471.00;5009569;28;20044;-73
2024/01/03 07:01:31;;;;;;;2.53;1.00;;;;;;;7.13;100.00;95481.47;5020692;28;20123;-71
2024/01/03 07:03:58;;;;;;;3.67;1.35;;;;;;;7.13;100.00;95463.22;5014462;28;20061;-71
2024/01/03 07:06:24;;;;;;;2.67;1.13;;;;;;;7.18;100.00;95462.84;5021471;28;20057;-71
2024/01/03 07:08:51;;;;;;;2.67;1.25;;;;;;;7.14;100.00;95464.00;5036604;28;20118;-72
2024/01/03 07:11:17;;;;;;;2.42;1.20;;;;;;;7.15;100.00;95473.72;5023443;28;20046;-70
2024/01/03 07:13:42;;;;;;;4.50;1.35;;;;;;;7.18;100.00;95468.31;5020873;28;20118;-72
2024/01/03 07:16:09;;;;;;;5.68;1.50;;;;;;;7.24;100.00;95463.31;5015382;28;20041;-71
2024/01/03 07:18:34;;;;;;;5.13;1.80;;;;;;;7.29;100.00;95471.13;5011194;28;20162;-70
2024/01/03 07:21:00;;;;;;;2.08;1.20;;;;;;;7.30;100.00;95469.22;5021454;28;20124;-71
2024/01/03 07:23:25;;;;;;;2.90;1.05;;;;;;;7.38;100.00;95479.00;5017035;28;20038;-70
2024/01/03 07:25:50;;;;;;;8.20;3.15;;;;;;;7.42;100.00;95469.72;5019171;28;20053;-72
2024/01/03 07:28:16;;;;;;;9.73;4.10;;;;;;;7.45;100.00;95474.41;4998173;28;20128;-73
2024/01/03 07:30:41;;;;;;;4.55;1.30;;;;;;;7.44;100.00;95477.50;5001381;28;20048;-72
2024/01/03 07:33:07;;;;;;;3.28;1.20;;;;;;;7.40;100.00;95474.75;5017585;28;20049;-71
2024/01/03 07:35:32;;;;;;;3.92;1.20;;;;;;;7.40;100.00;95460.31;5013594;28;20172;-73
2024/01/03 07:37:57;;;;;;;3.05;1.17;;;;;;;7.43;100.00;95443.25;5017412;28;20052;-71
2024/01/03 07:40:23;;;;;;;4.75;1.30;;;;;;;7.48;100.00;95464.69;5013244;28;20043;-72
2024/01/03 07:42:48;;;;;;;5.15;1.33;;;;;;;7.52;100.00;95443.69;5015300;28;20046;-71
2024/01/03 07:45:14;;;;;;;3.67;1.30;;;;;;;7.44;100.00;95456.50;5033736;28;20072;-68
2024/01/03 07:47:39;;;;;;;2.17;1.35;;;;;;;7.49;100.00;95474.44;5017049;28;20048;-70
2024/01/03 07:50:05;;;;;;;4.97;1.13;;;;;;;7.48;100.00;95467.41;5016485;28;20042;-72
2024/01/03 07:52:30;;;;;;;6.57;1.20;;;;;;;7.58;100.00;95483.09;5015719;28;20065;-72
2024/01/03 07:54:56;;;;;;;3.53;1.33;;;;;;;7.67;100.00;95466.41;5019081;28;20045;-72
2024/01/03 07:57:21;;;;;;;4.70;1.40;;;;;;;7.75;100.00;95467.25;5007427;28;20649;-72
2024/01/03 07:59:47;;;;;;;3.33;1.27;;;;;;;7.94;100.00;95467.00;5019620;28;20128;-72
2024/01/03 08:02:12;;;;;;;3.35;1.02;;;;;;;8.39;100.00;95455.94;5009161;28;20041;-73
2024/01/03 08:04:39;;;;;;;2.75;1.30;;;;;;;8.79;100.00;95462.38;5004398;28;20045;-71
2024/01/03 08:07:06;;;;;;;2.90;1.00;;;;;;;8.88;100.00;95456.56;5015359;28;20041;-72
2024/01/03 08:09:32;;;;;;;2.42;1.00;;;;;;;9.07;100.00;95458.16;5012449;28;20046;-74
2024/01/03 08:11:58;;;;;;;4.20;1.15;;;;;;;9.38;100.00;95459.34;5010943;28;20136;-73
2024/01/03 08:14:23;;;;;;;3.75;1.00;;;;;;;9.44;100.00;95446.88;5016684;28;20380;-72
2024/01/03 08:16:49;;;;;;;4.30;1.30;;;;;;;9.50;100.00;95448.06;5004032;28;20056;-70
2024/01/03 08:19:14;;;;;;;2.53;0.90;;;;;;;9.53;100.00;95454.72;5009478;28;20050;-70
2024/01/03 08:21:40;;;;;;;2.40;0.95;;;;;;;9.80;100.00;95446.88;5015147;28;20045;-72
2024/01/03 08:24:05;;;;;;;3.33;1.00;;;;;;;9.87;100.00;95435.94;4999743;28;20033;-72
2024/01/03 08:26:31;;;;;;;3.25;0.90;;;;;;;9.81;100.00;95437.50;5026046;28;20038;-73
2024/01/03 08:28:57;;;;;;;2.78;1.00;;;;;;;9.75;100.00;95426.19;5011573;28;20045;-71
2024/01/03 08:31:22;;;;;;;4.43;1.27;;;;;;;9.88;100.00;95445.69;5024809;28;20629;-72
2024/01/03 08:33:47;;;;;;;2.28;0.90;;;;;;;9.97;100.00;95450.00;5033148;28;20486;-72
2024/01/03 08:36:14;;;;;;;3.70;1.10;;;;;;;10.10;100.00;95456.59;5030126;28;20048;-69
2024/01/03 08:38:40;;;;;;;2.60;0.93;;;;;;;10.09;100.00;95453.09;5012489;28;20100;-71
2024/01/03 08:41:16;;;;;;;3.45;1.00;;;;;;;10.24;100.00;95442.13;5008537;28;20834;-70
2024/01/03 08:43:42;;;;;;;3.70;1.17;;;;;;;10.34;100.00;95449.56;5003104;28;20490;-70
2024/01/03 08:46:08;;;;;;;4.28;0.93;;;;;;;10.65;100.00;95456.09;5004259;28;20046;-70
2024/01/03 08:48:33;;;;;;;2.45;0.90;;;;;;;10.64;100.00;95459.22;5006996;28;20124;-70
2024/01/03 08:50:59;;;;;;;2.55;0.93;;;;;;;10.80;100.00;95456.81;4998688;28;20034;-71
2024/01/03 08:53:24;;;;;;;2.83;0.75;;;;;;;10.96;100.00;95447.34;5019168;28;20136;-72
2024/01/03 08:55:49;;;;;;;2.65;0.70;;;;;;;10.89;100.00;95453.63;5001974;28;20064;-71
2024/01/03 08:58:15;;;;;;;3.63;1.02;;;;;;;10.85;100.00;95458.34;5011188;28;20125;-71
2024/01/03 09:00:43;;;;;;;5.05;0.90;;;;;;;11.00;100.00;95470.81;5031261;28;20057;-71
2024/01/03 09:03:09;;;;;;;3.00;0.90;;;;;;;11.12;100.00;95471.53;5002313;28;20042;-71
2024/01/03 09:05:34;;;;;;;4.97;0.98;;;;;;;11.19;100.00;95469.53;5011938;28;20095;-71
2024/01/03 09:07:59;;;;;;;1.83;0.80;;;;;;;11.21;100.00;95491.06;5003248;28;20071;-72
2024/01/03 09:10:25;;;;;;;1.70;0.65;;;;;;;11.23;100.00;95494.94;5009651;28;20602;-71
2024/01/03 09:12:50;;;;;;;1.92;0.80;;;;;;;11.15;100.00;95500.88;5009022;28;20045;-72
2024/01/03 09:15:16;;;;;;;1.90;1.08;;;;;;;11.23;100.00;95502.41;5002520;28;20396;-71
2024/01/03 09:17:44;;;;;;;3.08;0.85;;;;;;;11.27;100.00;95511.38;5017622;28;20033;-72
2024/01/03 09:20:11;;;;;;;4.22;0.70;;;;;;;11.69;100.00;95512.31;5013721;28;20038;-73
2024/01/03 09:22:36;;;;;;;4.57;0.90;;;;;;;12.03;99.73;95530.91;5025001;28;20056;-73
2024/01/03 09:25:02;;;;;;;2.85;0.90;;;;;;;12.14;99.20;95519.81;5012259;28;20101;-74
2024/01/03 09:27:28;;;;;;;1.92;0.70;;;;;;;12.37;92.31;95528.25;4998344;28;20115;-71
2024/01/03 09:29:53;;;;;;;4.00;1.05;;;;;;;12.62;91.18;95514.25;5000001;28;20065;-72
2024/01/03 09:32:19;;;;;;;2.10;0.70;;;;;;;12.69;90.58;95523.59;5009214;28;20049;-75
2024/01/03 09:34:44;;;;;;;3.17;1.15;;;;;;;12.49;87.02;95518.69;5020332;28;20052;-74
2024/01/03 09:37:09;;;;;;;3.17;0.75;;;;;;;12.68;87.56;95524.81;4997667;28;20050;-73
2024/01/03 09:39:35;;;;;;;2.78;0.90;;;;;;;12.92;84.83;95520.97;5007726;28;20102;-72
2024/01/03 09:42:01;;;;;;;4.63;0.90;;;;;;;12.58;85.46;95527.22;5000952;28;20042;-72
2024/01/03 09:44:27;;;;;;;1.50;1.00;;;;;;;12.91;83.88;95524.94;5004763;28;20435;-72
2024/01/03 09:46:52;;;;;;;5.07;1.05;;;;;;;12.81;79.98;95528.56;5001216;28;20042;-73
2024/01/03 09:49:18;;;;;;;1.67;0.75;;;;;;;13.16;76.97;95532.06;5001362;28;20041;-72
2024/01/03 09:51:47;;;;;;;2.90;0.80;;;;;;;13.12;78.03;95532.13;5032873;28;20046;-73
2024/01/03 09:54:13;;;;;;;3.58;0.65;;;;;;;13.02;77.37;95535.78;5016976;28;20060;-74
2024/01/03 09:56:40;;;;;;;4.35;0.82;;;;;;;13.19;76.52;95542.25;5013157;28;20037;-73
2024/01/03 09:59:06;;;;;;;3.35;0.82;;;;;;;13.61;72.48;95523.63;4995865;28;20030;-74
2024/01/03 10:01:32;;;;;;;1.15;0.65;;;;;;;13.10;75.00;95523.50;4999789;28;20041;-73
2024/01/03 10:03:58;;;;;;;4.88;0.85;;;;;;;12.84;75.84;95514.03;5022997;28;20073;-73
2024/01/03 10:06:23;;;;;;;3.38;1.00;;;;;;;12.39;78.37;95508.63;5009711;28;20065;-72
2024/01/03 10:09:01;;;;;;;2.50;0.80;;;;;;;12.07;80.63;95515.16;5009429;28;20084;-73
2024/01/03 10:11:27;;;;;;;3.88;0.80;;;;;;;11.86;81.86;95513.34;5014771;28;20077;-73
2024/01/03 10:13:54;;;;;;;3.53;1.50;;;;;;;11.64;84.78;95518.97;5018963;28;20099;-73
2024/01/03 10:16:27;;;;;;;3.25;0.80;;;;;;;11.33;82.70;95509.78;5002036;28;20037;-74
2024/01/03 10:19:09;;;;;;;1.85;0.80;;;;;;;11.17;84.16;95504.78;5032809;28;20443;-74
2024/01/03 10:21:36;;;;;;;8.68;1.50;;;;;;;11.16;84.32;95500.47;5021305;28;20037;-74
2024/01/03 10:24:05;;;;;;;6.63;1.13;;;;;;;11.01;85.78;95507.97;5002614;28;20149;-75
2024/01/03 10:26:31;;;;;;;5.88;3.22;;;;;;;10.98;83.26;95500.56;5012062;28;20044;-74
2024/01/03 10:29:10;;;;;;;4.40;1.00;;;;;;;10.85;83.60;95499.44;5015891;28;20049;-73
2024/01/03 10:31:35;;;;;;;5.77;0.80;;;;;;;10.88;80.26;95499.44;5009420;28;20046;-74
2024/01/03 10:34:02;;;;;;;4.68;1.13;;;;;;;10.83;80.90;95505.31;5036672;28;20042;-73
2024/01/03 10:36:29;;;;;;;3.95;0.90;;;;;;;10.82;81.99;95503.78;5012321;28;20049;-74
2024/01/03 10:38:58;;;;;;;2.55;0.88;;;;;;;10.80;80.54;95499.84;5012238;28;20036;-74
2024/01/03 10:41:24;;;;;;;2.30;0.80;;;;;;;10.82;76.82;95495.56;5038570;28;20795;-74
2024/01/03 10:43:51;;;;;;;6.97;0.70;;;;;;;10.69;79.04;95494.41;5032290;28;20037;-75
2024/01/03 10:46:18;;;;;;;4.75;1.00;;;;;;;10.84;78.48;95484.19;5029386;28;20073;-71
2024/01/03 10:48:44;;;;;;;3.72;0.77;;;;;;;10.72;76.94;95485.41;5024435;28;20132;-73
2024/01/03 10:51:12;;;;;;;1.70;0.73;;;;;;;10.65;76.14;95494.44;5020161;28;20499;-74
2024/01/03 10:53:42;;;;;;;3.83;1.60;;;;;;;10.68;76.36;95506.56;5014657;28;20510;-72
2024/01/03 10:56:09;;;;;;;1.63;0.80;;;;;;;10.62;76.19;95500.69;5024979;28;20041;-72
2024/01/03 10:58:39;;;;;;;3.22;0.75;;;;;;;10.57;77.77;95509.31;5015219;28;20085;-73
2024/01/03 11:01:55;;;;;;;1.95;0.70;;;;;;;10.49;77.06;95494.84;5016610;28;20045;-74
2024/01/03 11:05:08;;;;;;;5.18;1.00;;;;;;;10.57;76.99;95503.06;4977649;28;20152;-73
2024/01/03 11:07:42;;;;;;;3.33;1.10;;;;;;;10.52;77.99;95493.31;4925440;29;20057;-72
2024/01/03 11:10:08;;;;;;;4.13;1.50;;;;;;;10.60;75.10;95497.56;4919826;29;20050;-72
2024/01/03 11:12:34;;;;;;;2.20;0.80;;;;;;;10.53;77.40;95503.06;4974309;28;20045;-73
2024/01/03 11:15:25;;;;;;;6.38;0.80;;;;;;;10.62;74.20;95497.94;5015452;28;20103;-72
2024/01/03 11:17:50;;;;;;;1.42;0.90;;;;;;;10.61;75.63;95507.34;5013131;28;20057;-72
2024/01/03 11:20:27;;;;;;;3.30;0.93;;;;;;;10.63;75.65;95496.00;5016993;28;20186;-74
2024/01/03 11:23:04;;;;;;;2.90;0.95;;;;;;;10.77;75.85;95492.41;5013017;28;20046;-73
2024/01/03 11:25:49;;;;;;;2.15;0.90;;;;;;;11.19;72.27;95496.94;5016727;28;20052;-74
2024/01/03 11:28:31;;;;;;;2.70;0.95;;;;;;;11.32;70.05;95499.22;5001886;28;20040;-74
2024/01/03 11:30:58;;;;;;;2.72;0.90;;;;;;;11.29;70.78;95490.63;5016164;28;20049;-74